24h
KLIENDITUGI:
Saartelennuliinid: +372 58856336 (24/7)
Estairi piletikassa lennujaamas:
+372 6058887; +372 55603687

18.04.2018 hommikune Transaviabaltika lend KTB670 kell 07:00 (kohalik aeg) Tallinn - Kärdla väljalend ja KTB671 kell 07:45 Kärdla – Tallinn väljalend hilineb 3,5 tundi. KTB670 TLL-KDL uus väljalennu aeg on kell 10:30 (kohalik aeg) ja KTB671 KDL – TLL uus väljalennu aeg on kell 11:15 (kohalik aeg). Lennu hilinemise põhjustab udu Kärdla lennuväljal.

EEKA Kärdla lennuväli

FCEO32 EETN 180300 TAF EEKA 180300Z 1804/1810 31010KT 0800 FG VV002

TEMPO 1805/1807 2000 BR OVC004 BECMG 1807/1809 6000 BKN005=

METAR EEKA 180350Z 31009KT 0400 FG VV001 04/04 Q1020=
Kuupäev: 
18/04/2018